sensor_id;sensor_type;location;lat;lon;timestamp;P1;durP1;ratioP1;P2;durP2;ratioP2
49217;SDS011;35045;51.194;7.268;2022-09-25T00:00:45;45.65;;;36.00;;
49217;SDS011;35045;51.194;7.268;2022-09-25T00:03:14;45.00;;;35.72;;
49217;SDS011;35045;51.194;7.268;2022-09-25T00:05:41;44.53;;;35.08;;
49217;SDS011;35045;51.194;7.268;2022-09-25T00:08:10;46.28;;;36.03;;
49217;SDS011;35045;51.194;7.268;2022-09-25T00:10:41;43.33;;;34.20;;
49217;SDS011;35045;51.194;7.268;2022-09-25T00:13:08;43.17;;;34.42;;
49217;SDS011;35045;51.194;7.268;2022-09-25T00:15:35;45.15;;;34.08;;
49217;SDS011;35045;51.194;7.268;2022-09-25T00:18:02;45.72;;;34.28;;
49217;SDS011;35045;51.194;7.268;2022-09-25T00:20:28;45.08;;;32.45;;
49217;SDS011;35045;51.194;7.268;2022-09-25T00:22:55;43.92;;;32.70;;
49217;SDS011;35045;51.194;7.268;2022-09-25T00:25:21;45.35;;;34.47;;
49217;SDS011;35045;51.194;7.268;2022-09-25T00:27:47;43.97;;;33.40;;
49217;SDS011;35045;51.194;7.268;2022-09-25T00:30:17;41.90;;;32.70;;
49217;SDS011;35045;51.194;7.268;2022-09-25T00:32:43;42.63;;;32.28;;
49217;SDS011;35045;51.194;7.268;2022-09-25T00:35:09;41.78;;;31.83;;
49217;SDS011;35045;51.194;7.268;2022-09-25T00:37:36;37.95;;;30.23;;
49217;SDS011;35045;51.194;7.268;2022-09-25T00:40:03;39.60;;;30.10;;
49217;SDS011;35045;51.194;7.268;2022-09-25T00:42:30;39.25;;;28.35;;
49217;SDS011;35045;51.194;7.268;2022-09-25T00:44:58;40.88;;;31.83;;
49217;SDS011;35045;51.194;7.268;2022-09-25T00:53:12;36.22;;;28.55;;
49217;SDS011;35045;51.194;7.268;2022-09-25T00:55:43;34.25;;;27.70;;
49217;SDS011;35045;51.194;7.268;2022-09-25T00:58:10;37.35;;;27.88;;
49217;SDS011;35045;51.194;7.268;2022-09-25T01:00:39;34.08;;;26.95;;
49217;SDS011;35045;51.194;7.268;2022-09-25T01:03:06;38.30;;;28.63;;
49217;SDS011;35045;51.194;7.268;2022-09-25T01:05:37;34.33;;;27.88;;
49217;SDS011;35045;51.194;7.268;2022-09-25T01:08:07;35.05;;;27.00;;
49217;SDS011;35045;51.194;7.268;2022-09-25T01:10:37;35.90;;;28.90;;
49217;SDS011;35045;51.194;7.268;2022-09-25T01:13:03;34.63;;;27.85;;
49217;SDS011;35045;51.194;7.268;2022-09-25T01:15:30;36.38;;;27.08;;
49217;SDS011;35045;51.194;7.268;2022-09-25T01:19:04;36.70;;;26.48;;
49217;SDS011;35045;51.194;7.268;2022-09-25T01:26:43;35.20;;;26.85;;
49217;SDS011;35045;51.194;7.268;2022-09-25T01:29:18;30.70;;;25.35;;
49217;SDS011;35045;51.194;7.268;2022-09-25T01:35:18;31.55;;;24.05;;
49217;SDS011;35045;51.194;7.268;2022-09-25T01:40:35;35.03;;;25.27;;
49217;SDS011;35045;51.194;7.268;2022-09-25T01:45:59;31.10;;;24.25;;
49217;SDS011;35045;51.194;7.268;2022-09-25T01:48:29;30.00;;;23.10;;
49217;SDS011;35045;51.194;7.268;2022-09-25T01:50:59;31.63;;;23.52;;
49217;SDS011;35045;51.194;7.268;2022-09-25T01:53:40;31.23;;;22.67;;
49217;SDS011;35045;51.194;7.268;2022-09-25T01:56:13;31.90;;;23.52;;
49217;SDS011;35045;51.194;7.268;2022-09-25T01:59:07;34.08;;;23.55;;
49217;SDS011;35045;51.194;7.268;2022-09-25T02:01:55;29.17;;;22.33;;
49217;SDS011;35045;51.194;7.268;2022-09-25T02:04:27;28.70;;;21.15;;
49217;SDS011;35045;51.194;7.268;2022-09-25T02:07:05;24.83;;;17.65;;
49217;SDS011;35045;51.194;7.268;2022-09-25T02:09:42;20.67;;;14.98;;
49217;SDS011;35045;51.194;7.268;2022-09-25T02:12:13;21.80;;;13.40;;
49217;SDS011;35045;51.194;7.268;2022-09-25T02:17:53;20.88;;;12.35;;
49217;SDS011;35045;51.194;7.268;2022-09-25T02:23:22;19.10;;;12.73;;
49217;SDS011;35045;51.194;7.268;2022-09-25T02:25:56;17.63;;;12.07;;
49217;SDS011;35045;51.194;7.268;2022-09-25T02:28:29;19.77;;;14.05;;
49217;SDS011;35045;51.194;7.268;2022-09-25T02:30:56;22.58;;;15.63;;
49217;SDS011;35045;51.194;7.268;2022-09-25T02:33:24;19.90;;;14.50;;
49217;SDS011;35045;51.194;7.268;2022-09-25T02:35:51;17.50;;;14.25;;
49217;SDS011;35045;51.194;7.268;2022-09-25T02:38:18;23.58;;;14.95;;
49217;SDS011;35045;51.194;7.268;2022-09-25T02:40:47;22.50;;;16.55;;
49217;SDS011;35045;51.194;7.268;2022-09-25T02:43:27;23.08;;;16.85;;
49217;SDS011;35045;51.194;7.268;2022-09-25T02:49:43;23.92;;;17.98;;
49217;SDS011;35045;51.194;7.268;2022-09-25T02:52:22;22.70;;;17.60;;
49217;SDS011;35045;51.194;7.268;2022-09-25T02:55:00;26.40;;;19.20;;
49217;SDS011;35045;51.194;7.268;2022-09-25T02:57:50;28.02;;;20.30;;
49217;SDS011;35045;51.194;7.268;2022-09-25T03:00:18;28.85;;;21.75;;
49217;SDS011;35045;51.194;7.268;2022-09-25T03:02:49;27.73;;;20.75;;
49217;SDS011;35045;51.194;7.268;2022-09-25T03:05:18;25.85;;;20.45;;
49217;SDS011;35045;51.194;7.268;2022-09-25T03:07:46;28.85;;;22.08;;
49217;SDS011;35045;51.194;7.268;2022-09-25T03:10:31;29.30;;;20.70;;
49217;SDS011;35045;51.194;7.268;2022-09-25T03:13:13;26.85;;;19.50;;
49217;SDS011;35045;51.194;7.268;2022-09-25T03:15:39;24.63;;;16.83;;
49217;SDS011;35045;51.194;7.268;2022-09-25T03:18:10;20.95;;;15.65;;
49217;SDS011;35045;51.194;7.268;2022-09-25T03:20:38;18.30;;;14.15;;
49217;SDS011;35045;51.194;7.268;2022-09-25T03:23:05;20.80;;;14.25;;
49217;SDS011;35045;51.194;7.268;2022-09-25T03:25:32;18.90;;;12.70;;
49217;SDS011;35045;51.194;7.268;2022-09-25T03:27:58;20.90;;;12.90;;
49217;SDS011;35045;51.194;7.268;2022-09-25T03:30:24;17.08;;;12.35;;
49217;SDS011;35045;51.194;7.268;2022-09-25T03:32:50;17.23;;;10.68;;
49217;SDS011;35045;51.194;7.268;2022-09-25T03:35:16;15.70;;;10.25;;
49217;SDS011;35045;51.194;7.268;2022-09-25T03:37:43;14.23;;;9.68;;
49217;SDS011;35045;51.194;7.268;2022-09-25T03:40:09;15.35;;;9.65;;
49217;SDS011;35045;51.194;7.268;2022-09-25T03:42:35;19.65;;;10.48;;
49217;SDS011;35045;51.194;7.268;2022-09-25T03:45:03;16.50;;;10.40;;
49217;SDS011;35045;51.194;7.268;2022-09-25T03:47:30;17.75;;;10.98;;
49217;SDS011;35045;51.194;7.268;2022-09-25T03:49:56;22.60;;;11.18;;
49217;SDS011;35045;51.194;7.268;2022-09-25T03:52:23;21.25;;;10.88;;
49217;SDS011;35045;51.194;7.268;2022-09-25T03:54:49;17.27;;;10.23;;
49217;SDS011;35045;51.194;7.268;2022-09-25T03:57:16;19.20;;;11.43;;
49217;SDS011;35045;51.194;7.268;2022-09-25T03:59:42;18.58;;;11.07;;
49217;SDS011;35045;51.194;7.268;2022-09-25T04:02:08;16.42;;;11.25;;
49217;SDS011;35045;51.194;7.268;2022-09-25T04:04:35;17.35;;;11.45;;
49217;SDS011;35045;51.194;7.268;2022-09-25T04:07:02;18.08;;;11.23;;
49217;SDS011;35045;51.194;7.268;2022-09-25T04:09:28;21.25;;;11.30;;
49217;SDS011;35045;51.194;7.268;2022-09-25T04:11:56;20.08;;;10.70;;
49217;SDS011;35045;51.194;7.268;2022-09-25T04:14:22;18.20;;;10.23;;
49217;SDS011;35045;51.194;7.268;2022-09-25T04:16:48;18.08;;;9.02;;
49217;SDS011;35045;51.194;7.268;2022-09-25T04:19:16;19.40;;;10.23;;
49217;SDS011;35045;51.194;7.268;2022-09-25T04:21:42;16.85;;;9.00;;
49217;SDS011;35045;51.194;7.268;2022-09-25T04:24:09;19.65;;;10.55;;
49217;SDS011;35045;51.194;7.268;2022-09-25T04:26:53;16.90;;;9.80;;
49217;SDS011;35045;51.194;7.268;2022-09-25T04:29:19;21.17;;;10.07;;
49217;SDS011;35045;51.194;7.268;2022-09-25T04:31:46;17.17;;;10.00;;
49217;SDS011;35045;51.194;7.268;2022-09-25T04:34:32;21.67;;;10.10;;
49217;SDS011;35045;51.194;7.268;2022-09-25T04:36:59;16.10;;;10.18;;
49217;SDS011;35045;51.194;7.268;2022-09-25T04:39:26;16.60;;;10.13;;
49217;SDS011;35045;51.194;7.268;2022-09-25T04:41:52;12.95;;;8.18;;
49217;SDS011;35045;51.194;7.268;2022-09-25T04:44:18;15.35;;;9.43;;
49217;SDS011;35045;51.194;7.268;2022-09-25T04:46:45;14.02;;;8.05;;
49217;SDS011;35045;51.194;7.268;2022-09-25T04:49:11;14.57;;;7.32;;
49217;SDS011;35045;51.194;7.268;2022-09-25T04:51:37;15.27;;;6.78;;
49217;SDS011;35045;51.194;7.268;2022-09-25T04:54:03;15.55;;;6.40;;
49217;SDS011;35045;51.194;7.268;2022-09-25T04:56:30;10.93;;;6.28;;
49217;SDS011;35045;51.194;7.268;2022-09-25T04:58:56;16.40;;;5.60;;
49217;SDS011;35045;51.194;7.268;2022-09-25T05:01:22;11.90;;;6.13;;
49217;SDS011;35045;51.194;7.268;2022-09-25T05:03:49;16.38;;;6.25;;
49217;SDS011;35045;51.194;7.268;2022-09-25T05:06:18;11.50;;;5.72;;
49217;SDS011;35045;51.194;7.268;2022-09-25T05:08:47;13.23;;;5.97;;
49217;SDS011;35045;51.194;7.268;2022-09-25T05:11:14;12.45;;;5.78;;
49217;SDS011;35045;51.194;7.268;2022-09-25T05:13:40;16.52;;;6.28;;
49217;SDS011;35045;51.194;7.268;2022-09-25T05:16:11;11.00;;;6.03;;
49217;SDS011;35045;51.194;7.268;2022-09-25T05:18:37;14.63;;;6.20;;
49217;SDS011;35045;51.194;7.268;2022-09-25T05:21:03;12.00;;;5.20;;
49217;SDS011;35045;51.194;7.268;2022-09-25T05:23:29;14.20;;;5.15;;
49217;SDS011;35045;51.194;7.268;2022-09-25T05:25:56;11.65;;;5.15;;
49217;SDS011;35045;51.194;7.268;2022-09-25T05:28:25;15.00;;;4.85;;
49217;SDS011;35045;51.194;7.268;2022-09-25T05:30:51;11.93;;;4.45;;
49217;SDS011;35045;51.194;7.268;2022-09-25T05:33:18;13.60;;;4.60;;
49217;SDS011;35045;51.194;7.268;2022-09-25T05:35:44;12.00;;;4.57;;
49217;SDS011;35045;51.194;7.268;2022-09-25T05:38:10;10.18;;;3.97;;
49217;SDS011;35045;51.194;7.268;2022-09-25T05:40:37;14.82;;;5.18;;
49217;SDS011;35045;51.194;7.268;2022-09-25T05:43:03;13.50;;;5.20;;
49217;SDS011;35045;51.194;7.268;2022-09-25T05:45:33;13.98;;;4.90;;
49217;SDS011;35045;51.194;7.268;2022-09-25T05:50:27;14.38;;;5.15;;
49217;SDS011;35045;51.194;7.268;2022-09-25T05:52:57;12.50;;;4.28;;
49217;SDS011;35045;51.194;7.268;2022-09-25T05:55:24;14.48;;;5.10;;
49217;SDS011;35045;51.194;7.268;2022-09-25T05:57:51;14.02;;;4.72;;
49217;SDS011;35045;51.194;7.268;2022-09-25T06:00:18;17.25;;;5.10;;
49217;SDS011;35045;51.194;7.268;2022-09-25T06:02:44;13.20;;;4.70;;
49217;SDS011;35045;51.194;7.268;2022-09-25T06:05:15;14.85;;;4.55;;
49217;SDS011;35045;51.194;7.268;2022-09-25T06:07:41;11.55;;;4.00;;
49217;SDS011;35045;51.194;7.268;2022-09-25T06:10:07;14.45;;;4.13;;
49217;SDS011;35045;51.194;7.268;2022-09-25T06:12:34;11.57;;;3.72;;
49217;SDS011;35045;51.194;7.268;2022-09-25T06:15:00;9.90;;;3.33;;
49217;SDS011;35045;51.194;7.268;2022-09-25T06:17:26;12.40;;;3.40;;
49217;SDS011;35045;51.194;7.268;2022-09-25T06:19:53;10.13;;;3.28;;
49217;SDS011;35045;51.194;7.268;2022-09-25T06:22:19;11.63;;;4.13;;
49217;SDS011;35045;51.194;7.268;2022-09-25T06:24:45;11.13;;;3.80;;
49217;SDS011;35045;51.194;7.268;2022-09-25T06:27:13;12.38;;;3.30;;
49217;SDS011;35045;51.194;7.268;2022-09-25T06:29:39;12.40;;;4.93;;
49217;SDS011;35045;51.194;7.268;2022-09-25T06:32:05;12.70;;;4.43;;
49217;SDS011;35045;51.194;7.268;2022-09-25T06:34:31;11.95;;;4.03;;
49217;SDS011;35045;51.194;7.268;2022-09-25T06:36:58;9.82;;;4.00;;
49217;SDS011;35045;51.194;7.268;2022-09-25T06:39:25;10.65;;;4.28;;
49217;SDS011;35045;51.194;7.268;2022-09-25T06:41:52;8.65;;;3.55;;
49217;SDS011;35045;51.194;7.268;2022-09-25T06:44:19;13.38;;;4.57;;
49217;SDS011;35045;51.194;7.268;2022-09-25T06:46:50;10.40;;;3.58;;
49217;SDS011;35045;51.194;7.268;2022-09-25T06:49:19;9.82;;;3.53;;
49217;SDS011;35045;51.194;7.268;2022-09-25T06:51:46;12.65;;;3.92;;
49217;SDS011;35045;51.194;7.268;2022-09-25T06:54:12;10.43;;;4.30;;
49217;SDS011;35045;51.194;7.268;2022-09-25T06:56:38;9.90;;;3.22;;
49217;SDS011;35045;51.194;7.268;2022-09-25T06:59:05;9.50;;;2.95;;
49217;SDS011;35045;51.194;7.268;2022-09-25T07:01:31;11.20;;;3.53;;
49217;SDS011;35045;51.194;7.268;2022-09-25T07:03:57;10.05;;;3.22;;
49217;SDS011;35045;51.194;7.268;2022-09-25T07:06:24;11.40;;;3.20;;
49217;SDS011;35045;51.194;7.268;2022-09-25T07:08:53;11.52;;;3.17;;
49217;SDS011;35045;51.194;7.268;2022-09-25T07:11:22;11.50;;;3.33;;
49217;SDS011;35045;51.194;7.268;2022-09-25T07:13:50;12.77;;;3.15;;
49217;SDS011;35045;51.194;7.268;2022-09-25T07:16:20;9.30;;;3.35;;
49217;SDS011;35045;51.194;7.268;2022-09-25T07:18:48;12.13;;;3.40;;
49217;SDS011;35045;51.194;7.268;2022-09-25T07:21:16;12.27;;;3.40;;
49217;SDS011;35045;51.194;7.268;2022-09-25T07:23:45;9.65;;;3.10;;
49217;SDS011;35045;51.194;7.268;2022-09-25T07:26:14;9.68;;;2.90;;
49217;SDS011;35045;51.194;7.268;2022-09-25T07:28:57;12.25;;;3.20;;
49217;SDS011;35045;51.194;7.268;2022-09-25T07:31:26;11.68;;;3.15;;
49217;SDS011;35045;51.194;7.268;2022-09-25T07:33:54;9.43;;;3.17;;
49217;SDS011;35045;51.194;7.268;2022-09-25T07:36:21;12.02;;;2.83;;
49217;SDS011;35045;51.194;7.268;2022-09-25T07:38:48;10.05;;;2.50;;
49217;SDS011;35045;51.194;7.268;2022-09-25T07:41:16;9.27;;;3.97;;
49217;SDS011;35045;51.194;7.268;2022-09-25T07:43:43;9.82;;;2.60;;
49217;SDS011;35045;51.194;7.268;2022-09-25T07:46:10;11.70;;;3.42;;
49217;SDS011;35045;51.194;7.268;2022-09-25T07:48:37;12.70;;;3.25;;
49217;SDS011;35045;51.194;7.268;2022-09-25T07:51:04;12.75;;;3.40;;
49217;SDS011;35045;51.194;7.268;2022-09-25T07:53:33;12.68;;;3.00;;
49217;SDS011;35045;51.194;7.268;2022-09-25T07:55:59;9.77;;;3.00;;
49217;SDS011;35045;51.194;7.268;2022-09-25T07:58:29;11.55;;;3.17;;
49217;SDS011;35045;51.194;7.268;2022-09-25T08:00:59;12.57;;;3.10;;
49217;SDS011;35045;51.194;7.268;2022-09-25T08:03:26;12.57;;;3.45;;
49217;SDS011;35045;51.194;7.268;2022-09-25T08:06:00;9.35;;;2.40;;
49217;SDS011;35045;51.194;7.268;2022-09-25T08:08:27;10.95;;;2.97;;
49217;SDS011;35045;51.194;7.268;2022-09-25T08:10:57;11.38;;;3.20;;
49217;SDS011;35045;51.194;7.268;2022-09-25T08:13:25;12.20;;;2.88;;
49217;SDS011;35045;51.194;7.268;2022-09-25T08:15:51;9.02;;;2.55;;
49217;SDS011;35045;51.194;7.268;2022-09-25T08:18:17;6.40;;;2.35;;
49217;SDS011;35045;51.194;7.268;2022-09-25T08:20:44;10.60;;;2.50;;
49217;SDS011;35045;51.194;7.268;2022-09-25T08:23:10;11.60;;;2.60;;
49217;SDS011;35045;51.194;7.268;2022-09-25T08:25:36;9.15;;;2.95;;
49217;SDS011;35045;51.194;7.268;2022-09-25T08:28:02;13.50;;;3.20;;
49217;SDS011;35045;51.194;7.268;2022-09-25T08:30:28;9.15;;;2.70;;
49217;SDS011;35045;51.194;7.268;2022-09-25T08:32:54;12.32;;;2.63;;
49217;SDS011;35045;51.194;7.268;2022-09-25T08:35:21;12.82;;;3.20;;
49217;SDS011;35045;51.194;7.268;2022-09-25T08:37:47;8.48;;;2.47;;
49217;SDS011;35045;51.194;7.268;2022-09-25T08:40:17;8.10;;;2.33;;
49217;SDS011;35045;51.194;7.268;2022-09-25T08:42:46;9.23;;;2.40;;
49217;SDS011;35045;51.194;7.268;2022-09-25T08:45:20;7.60;;;2.20;;
49217;SDS011;35045;51.194;7.268;2022-09-25T08:48:14;8.98;;;1.88;;
49217;SDS011;35045;51.194;7.268;2022-09-25T08:51:12;9.77;;;2.33;;
49217;SDS011;35045;51.194;7.268;2022-09-25T08:53:38;11.05;;;2.60;;
49217;SDS011;35045;51.194;7.268;2022-09-25T08:56:09;13.48;;;2.30;;
49217;SDS011;35045;51.194;7.268;2022-09-25T08:58:41;10.20;;;2.20;;
49217;SDS011;35045;51.194;7.268;2022-09-25T09:01:11;9.98;;;2.38;;
49217;SDS011;35045;51.194;7.268;2022-09-25T09:03:54;8.60;;;1.88;;
49217;SDS011;35045;51.194;7.268;2022-09-25T09:06:30;11.25;;;2.53;;
49217;SDS011;35045;51.194;7.268;2022-09-25T09:09:00;10.32;;;2.25;;
49217;SDS011;35045;51.194;7.268;2022-09-25T09:12:07;6.75;;;2.10;;
49217;SDS011;35045;51.194;7.268;2022-09-25T09:14:34;10.60;;;3.28;;
49217;SDS011;35045;51.194;7.268;2022-09-25T09:17:06;9.75;;;2.00;;
49217;SDS011;35045;51.194;7.268;2022-09-25T09:19:46;7.78;;;2.10;;
49217;SDS011;35045;51.194;7.268;2022-09-25T09:22:17;9.73;;;1.63;;
49217;SDS011;35045;51.194;7.268;2022-09-25T09:30:14;8.07;;;1.73;;
49217;SDS011;35045;51.194;7.268;2022-09-25T09:32:48;10.98;;;1.95;;
49217;SDS011;35045;51.194;7.268;2022-09-25T09:38:25;8.00;;;1.55;;
49217;SDS011;35045;51.194;7.268;2022-09-25T09:49:51;5.45;;;1.58;;
49217;SDS011;35045;51.194;7.268;2022-09-25T09:52:27;8.68;;;1.77;;
49217;SDS011;35045;51.194;7.268;2022-09-25T09:55:03;7.18;;;1.75;;
49217;SDS011;35045;51.194;7.268;2022-09-25T09:57:49;7.40;;;1.67;;
49217;SDS011;35045;51.194;7.268;2022-09-25T10:00:20;9.52;;;1.67;;
49217;SDS011;35045;51.194;7.268;2022-09-25T10:02:57;9.25;;;1.73;;
49217;SDS011;35045;51.194;7.268;2022-09-25T10:05:30;8.88;;;1.98;;
49217;SDS011;35045;51.194;7.268;2022-09-25T10:07:57;6.97;;;1.20;;
49217;SDS011;35045;51.194;7.268;2022-09-25T10:10:27;11.65;;;1.70;;
49217;SDS011;35045;51.194;7.268;2022-09-25T10:13:00;9.90;;;1.88;;
49217;SDS011;35045;51.194;7.268;2022-09-25T10:15:35;8.07;;;1.65;;
49217;SDS011;35045;51.194;7.268;2022-09-25T10:18:07;5.07;;;1.13;;
49217;SDS011;35045;51.194;7.268;2022-09-25T10:20:40;6.82;;;1.45;;
49217;SDS011;35045;51.194;7.268;2022-09-25T10:23:15;6.78;;;1.30;;
49217;SDS011;35045;51.194;7.268;2022-09-25T10:26:00;6.65;;;1.20;;
49217;SDS011;35045;51.194;7.268;2022-09-25T10:28:28;6.90;;;1.25;;
49217;SDS011;35045;51.194;7.268;2022-09-25T10:30:57;4.80;;;1.35;;
49217;SDS011;35045;51.194;7.268;2022-09-25T10:33:25;5.50;;;1.60;;
49217;SDS011;35045;51.194;7.268;2022-09-25T10:35:56;4.60;;;1.10;;
49217;SDS011;35045;51.194;7.268;2022-09-25T10:41:09;10.65;;;1.77;;
49217;SDS011;35045;51.194;7.268;2022-09-25T10:43:56;5.05;;;1.30;;
49217;SDS011;35045;51.194;7.268;2022-09-25T10:46:26;4.63;;;1.13;;
49217;SDS011;35045;51.194;7.268;2022-09-25T10:49:19;5.65;;;1.05;;
49217;SDS011;35045;51.194;7.268;2022-09-25T10:52:12;6.75;;;1.38;;
49217;SDS011;35045;51.194;7.268;2022-09-25T10:54:44;4.95;;;0.95;;
49217;SDS011;35045;51.194;7.268;2022-09-25T10:59:52;7.95;;;2.00;;
49217;SDS011;35045;51.194;7.268;2022-09-25T11:02:26;3.25;;;1.15;;
49217;SDS011;35045;51.194;7.268;2022-09-25T11:05:02;9.45;;;1.90;;
49217;SDS011;35045;51.194;7.268;2022-09-25T11:07:30;6.70;;;1.20;;
49217;SDS011;35045;51.194;7.268;2022-09-25T11:09:57;6.10;;;1.10;;
49217;SDS011;35045;51.194;7.268;2022-09-25T11:12:25;5.53;;;1.05;;
49217;SDS011;35045;51.194;7.268;2022-09-25T11:15:03;5.78;;;1.08;;
49217;SDS011;35045;51.194;7.268;2022-09-25T11:17:40;4.10;;;1.20;;
49217;SDS011;35045;51.194;7.268;2022-09-25T11:20:18;6.13;;;1.38;;
49217;SDS011;35045;51.194;7.268;2022-09-25T11:22:52;5.03;;;0.95;;
49217;SDS011;35045;51.194;7.268;2022-09-25T11:28:19;4.45;;;1.10;;
49217;SDS011;35045;51.194;7.268;2022-09-25T11:31:02;5.03;;;0.93;;
49217;SDS011;35045;51.194;7.268;2022-09-25T11:33:54;6.50;;;1.17;;
49217;SDS011;35045;51.194;7.268;2022-09-25T11:36:26;4.50;;;0.98;;
49217;SDS011;35045;51.194;7.268;2022-09-25T11:39:01;5.00;;;1.10;;
49217;SDS011;35045;51.194;7.268;2022-09-25T11:42:13;4.20;;;1.40;;
49217;SDS011;35045;51.194;7.268;2022-09-25T11:44:49;6.95;;;1.10;;
49217;SDS011;35045;51.194;7.268;2022-09-25T11:47:59;4.15;;;0.80;;
49217;SDS011;35045;51.194;7.268;2022-09-25T11:50:25;4.65;;;1.38;;
49217;SDS011;35045;51.194;7.268;2022-09-25T12:15:23;3.97;;;0.95;;
49217;SDS011;35045;51.194;7.268;2022-09-25T12:20:55;5.60;;;1.00;;
49217;SDS011;35045;51.194;7.268;2022-09-25T12:31:44;4.00;;;1.00;;
49217;SDS011;35045;51.194;7.268;2022-09-25T12:34:37;3.38;;;0.82;;
49217;SDS011;35045;51.194;7.268;2022-09-25T12:37:18;4.13;;;1.10;;
49217;SDS011;35045;51.194;7.268;2022-09-25T12:40:52;4.28;;;1.10;;
49217;SDS011;35045;51.194;7.268;2022-09-25T12:43:09;5.93;;;1.02;;
49217;SDS011;35045;51.194;7.268;2022-09-25T12:45:53;4.53;;;1.00;;
49217;SDS011;35045;51.194;7.268;2022-09-25T12:48:54;3.65;;;0.90;;
49217;SDS011;35045;51.194;7.268;2022-09-25T12:51:50;4.13;;;0.77;;
49217;SDS011;35045;51.194;7.268;2022-09-25T12:59:42;4.47;;;0.90;;
49217;SDS011;35045;51.194;7.268;2022-09-25T13:02:20;8.13;;;1.50;;
49217;SDS011;35045;51.194;7.268;2022-09-25T13:04:59;3.38;;;0.88;;
49217;SDS011;35045;51.194;7.268;2022-09-25T13:08:08;5.25;;;1.05;;
49217;SDS011;35045;51.194;7.268;2022-09-25T13:10:58;4.15;;;1.10;;
49217;SDS011;35045;51.194;7.268;2022-09-25T13:13:26;5.20;;;1.10;;
49217;SDS011;35045;51.194;7.268;2022-09-25T13:15:56;4.50;;;1.00;;
49217;SDS011;35045;51.194;7.268;2022-09-25T13:18:25;4.15;;;1.60;;
49217;SDS011;35045;51.194;7.268;2022-09-25T13:20:53;3.80;;;0.80;;
49217;SDS011;35045;51.194;7.268;2022-09-25T13:23:25;2.30;;;0.73;;
49217;SDS011;35045;51.194;7.268;2022-09-25T13:25:52;6.35;;;1.17;;
49217;SDS011;35045;51.194;7.268;2022-09-25T13:29:01;3.35;;;0.93;;
49217;SDS011;35045;51.194;7.268;2022-09-25T13:31:23;3.35;;;0.95;;
49217;SDS011;35045;51.194;7.268;2022-09-25T13:33:52;3.58;;;0.98;;
49217;SDS011;35045;51.194;7.268;2022-09-25T13:36:29;3.20;;;0.73;;
49217;SDS011;35045;51.194;7.268;2022-09-25T13:39:35;3.10;;;0.98;;
49217;SDS011;35045;51.194;7.268;2022-09-25T13:47:32;4.93;;;0.80;;
49217;SDS011;35045;51.194;7.268;2022-09-25T14:00:23;2.90;;;0.68;;
49217;SDS011;35045;51.194;7.268;2022-09-25T14:03:01;5.32;;;0.95;;
49217;SDS011;35045;51.194;7.268;2022-09-25T14:05:29;5.82;;;1.10;;
49217;SDS011;35045;51.194;7.268;2022-09-25T14:08:08;3.53;;;0.98;;
49217;SDS011;35045;51.194;7.268;2022-09-25T14:10:42;3.97;;;1.10;;
49217;SDS011;35045;51.194;7.268;2022-09-25T14:13:11;3.80;;;1.10;;
49217;SDS011;35045;51.194;7.268;2022-09-25T14:15:39;3.83;;;1.00;;
49217;SDS011;35045;51.194;7.268;2022-09-25T14:18:14;3.63;;;1.13;;
49217;SDS011;35045;51.194;7.268;2022-09-25T14:20:49;4.20;;;1.08;;
49217;SDS011;35045;51.194;7.268;2022-09-25T14:23:22;4.43;;;1.25;;
49217;SDS011;35045;51.194;7.268;2022-09-25T14:25:58;2.97;;;0.85;;
49217;SDS011;35045;51.194;7.268;2022-09-25T14:28:33;3.60;;;1.00;;
49217;SDS011;35045;51.194;7.268;2022-09-25T14:31:28;5.03;;;1.05;;
49217;SDS011;35045;51.194;7.268;2022-09-25T14:48:32;4.30;;;1.48;;
49217;SDS011;35045;51.194;7.268;2022-09-25T14:51:04;3.03;;;0.90;;
49217;SDS011;35045;51.194;7.268;2022-09-25T14:53:59;5.15;;;1.10;;
49217;SDS011;35045;51.194;7.268;2022-09-25T14:56:28;4.40;;;1.02;;
49217;SDS011;35045;51.194;7.268;2022-09-25T14:58:58;3.50;;;0.95;;
49217;SDS011;35045;51.194;7.268;2022-09-25T15:01:28;4.43;;;1.30;;
49217;SDS011;35045;51.194;7.268;2022-09-25T15:03:57;4.07;;;0.95;;
49217;SDS011;35045;51.194;7.268;2022-09-25T15:06:33;2.55;;;0.90;;
49217;SDS011;35045;51.194;7.268;2022-09-25T15:11:53;2.47;;;0.75;;
49217;SDS011;35045;51.194;7.268;2022-09-25T15:14:20;3.83;;;0.90;;
49217;SDS011;35045;51.194;7.268;2022-09-25T15:16:47;2.85;;;0.80;;
49217;SDS011;35045;51.194;7.268;2022-09-25T15:19:34;4.53;;;1.30;;
49217;SDS011;35045;51.194;7.268;2022-09-25T15:22:10;3.88;;;0.90;;
49217;SDS011;35045;51.194;7.268;2022-09-25T15:24:49;2.58;;;0.88;;
49217;SDS011;35045;51.194;7.268;2022-09-25T15:27:19;4.30;;;1.00;;
49217;SDS011;35045;51.194;7.268;2022-09-25T15:29:47;6.07;;;0.95;;
49217;SDS011;35045;51.194;7.268;2022-09-25T15:32:15;4.72;;;0.93;;
49217;SDS011;35045;51.194;7.268;2022-09-25T15:37:43;3.67;;;0.90;;
49217;SDS011;35045;51.194;7.268;2022-09-25T15:42:45;3.10;;;0.90;;
49217;SDS011;35045;51.194;7.268;2022-09-25T15:47:57;5.13;;;1.25;;
49217;SDS011;35045;51.194;7.268;2022-09-25T15:50:26;4.13;;;1.00;;
49217;SDS011;35045;51.194;7.268;2022-09-25T15:52:54;4.38;;;1.00;;
49217;SDS011;35045;51.194;7.268;2022-09-25T15:55:23;4.35;;;1.10;;
49217;SDS011;35045;51.194;7.268;2022-09-25T15:57:50;6.10;;;1.20;;
49217;SDS011;35045;51.194;7.268;2022-09-25T16:00:19;6.60;;;1.30;;
49217;SDS011;35045;51.194;7.268;2022-09-25T16:05:57;3.08;;;1.08;;
49217;SDS011;35045;51.194;7.268;2022-09-25T16:08:32;5.72;;;1.38;;
49217;SDS011;35045;51.194;7.268;2022-09-25T16:13:48;7.25;;;1.65;;
49217;SDS011;35045;51.194;7.268;2022-09-25T16:18:48;6.75;;;1.48;;
49217;SDS011;35045;51.194;7.268;2022-09-25T16:21:26;4.45;;;1.23;;
49217;SDS011;35045;51.194;7.268;2022-09-25T16:23:57;3.95;;;1.33;;
49217;SDS011;35045;51.194;7.268;2022-09-25T16:26:29;5.53;;;1.15;;
49217;SDS011;35045;51.194;7.268;2022-09-25T16:29:05;5.65;;;1.33;;
49217;SDS011;35045;51.194;7.268;2022-09-25T16:32:06;5.32;;;1.30;;
49217;SDS011;35045;51.194;7.268;2022-09-25T16:34:38;5.63;;;1.42;;
49217;SDS011;35045;51.194;7.268;2022-09-25T16:37:06;4.65;;;1.25;;
49217;SDS011;35045;51.194;7.268;2022-09-25T16:40:05;6.65;;;1.40;;
49217;SDS011;35045;51.194;7.268;2022-09-25T16:42:34;6.07;;;1.40;;
49217;SDS011;35045;51.194;7.268;2022-09-25T16:45:13;4.63;;;1.10;;
49217;SDS011;35045;51.194;7.268;2022-09-25T16:47:45;4.80;;;1.30;;
49217;SDS011;35045;51.194;7.268;2022-09-25T16:50:13;4.38;;;1.40;;
49217;SDS011;35045;51.194;7.268;2022-09-25T16:52:42;5.25;;;1.67;;
49217;SDS011;35045;51.194;7.268;2022-09-25T16:55:17;4.65;;;1.67;;
49217;SDS011;35045;51.194;7.268;2022-09-25T16:57:48;5.10;;;1.58;;
49217;SDS011;35045;51.194;7.268;2022-09-25T17:00:17;4.45;;;1.50;;
49217;SDS011;35045;51.194;7.268;2022-09-25T17:02:46;5.82;;;1.60;;
49217;SDS011;35045;51.194;7.268;2022-09-25T17:05:17;8.27;;;2.15;;
49217;SDS011;35045;51.194;7.268;2022-09-25T17:07:46;5.50;;;1.45;;
49217;SDS011;35045;51.194;7.268;2022-09-25T17:10:14;6.63;;;1.92;;
49217;SDS011;35045;51.194;7.268;2022-09-25T17:12:42;5.55;;;1.92;;
49217;SDS011;35045;51.194;7.268;2022-09-25T17:15:25;4.63;;;1.50;;
49217;SDS011;35045;51.194;7.268;2022-09-25T17:17:53;9.35;;;2.05;;
49217;SDS011;35045;51.194;7.268;2022-09-25T17:20:24;5.82;;;1.90;;
49217;SDS011;35045;51.194;7.268;2022-09-25T17:22:51;6.82;;;1.70;;
49217;SDS011;35045;51.194;7.268;2022-09-25T17:28:03;8.38;;;2.10;;
49217;SDS011;35045;51.194;7.268;2022-09-25T17:30:30;9.43;;;2.55;;
49217;SDS011;35045;51.194;7.268;2022-09-25T17:32:57;8.98;;;2.30;;
49217;SDS011;35045;51.194;7.268;2022-09-25T17:37:59;5.82;;;1.90;;